createdAt,value
2018-04-12T00:00:44.041Z,13.50
2018-04-12T00:03:10.722Z,13.50
2018-04-12T00:05:37.733Z,13.30
2018-04-12T00:08:04.392Z,13.30
2018-04-12T00:10:31.168Z,13.20
2018-04-12T00:12:58.845Z,13.10
2018-04-12T00:15:25.783Z,13.00
2018-04-12T00:17:52.627Z,13.00
2018-04-12T00:20:19.736Z,12.80
2018-04-12T00:22:45.986Z,12.80
2018-04-12T00:25:12.618Z,12.90
2018-04-12T00:27:38.870Z,12.80
2018-04-12T00:30:06.053Z,12.70
2018-04-12T00:32:33.484Z,12.60
2018-04-12T00:35:01.996Z,12.50
2018-04-12T00:37:29.166Z,12.60
2018-04-12T00:39:55.680Z,12.50
2018-04-12T00:42:23.338Z,12.40
2018-04-12T00:44:49.599Z,12.40
2018-04-12T00:47:16.592Z,12.20
2018-04-12T00:49:43.085Z,12.20
2018-04-12T00:52:10.077Z,12.20
2018-04-12T00:54:37.707Z,12.10
2018-04-12T00:57:03.949Z,12.20
2018-04-12T00:59:31.601Z,12.20
2018-04-12T01:01:59.376Z,12.10
2018-04-12T01:04:26.383Z,12.10
2018-04-12T01:06:53.150Z,12.20
2018-04-12T01:09:19.408Z,12.20
2018-04-12T01:11:46.916Z,12.30
2018-04-12T01:14:13.597Z,12.20
2018-04-12T01:16:40.361Z,12.30
2018-04-12T01:19:07.381Z,12.50
2018-04-12T01:21:33.636Z,12.50
2018-04-12T01:23:59.911Z,12.80
2018-04-12T01:26:26.170Z,12.90
2018-04-12T01:28:52.516Z,13.10
2018-04-12T01:31:19.297Z,13.20
2018-04-12T01:33:46.287Z,13.40
2018-04-12T01:36:12.534Z,13.50
2018-04-12T01:38:39.442Z,13.50
2018-04-12T01:41:06.420Z,13.60
2018-04-12T01:43:32.694Z,13.60
2018-04-12T01:45:58.993Z,13.60
2018-04-12T01:48:25.265Z,13.60
2018-04-12T01:50:51.632Z,13.60
2018-04-12T01:53:19.513Z,13.60
2018-04-12T01:55:45.750Z,13.60
2018-04-12T01:58:13.059Z,13.60
2018-04-12T02:00:39.377Z,13.60
2018-04-12T02:03:06.151Z,13.50
2018-04-12T02:05:32.405Z,13.40
2018-04-12T02:08:00.086Z,13.50
2018-04-12T02:10:27.793Z,13.50
2018-04-12T02:12:54.532Z,13.50
2018-04-12T02:15:21.304Z,13.60
2018-04-12T02:17:48.164Z,13.50
2018-04-12T02:20:14.607Z,13.50
2018-04-12T02:22:40.991Z,13.40
2018-04-12T02:25:07.265Z,13.30
2018-04-12T02:27:33.510Z,13.30
2018-04-12T02:29:59.904Z,13.30
2018-04-12T02:32:26.716Z,13.20
2018-04-12T02:34:53.699Z,13.00
2018-04-12T02:37:20.749Z,13.00
2018-04-12T02:39:47.016Z,13.00
2018-04-12T02:42:13.271Z,13.10
2018-04-12T02:44:40.653Z,13.30
2018-04-12T02:47:07.652Z,13.30
2018-04-12T02:49:34.004Z,13.30
2018-04-12T02:52:00.585Z,13.40
2018-04-12T02:54:28.081Z,13.50
2018-04-12T02:56:54.329Z,13.40
2018-04-12T02:59:20.585Z,13.50
2018-04-12T03:01:47.777Z,13.40
2018-04-12T03:04:15.329Z,13.40
2018-04-12T03:06:42.806Z,13.40
2018-04-12T03:09:10.309Z,13.40
2018-04-12T03:11:37.170Z,13.40
2018-04-12T03:14:04.171Z,13.50
2018-04-12T03:16:30.876Z,13.50
2018-04-12T03:18:57.132Z,13.50
2018-04-12T03:21:24.104Z,13.50
2018-04-12T03:23:50.394Z,13.50
2018-04-12T03:26:16.643Z,13.40
2018-04-12T03:28:43.285Z,13.40
2018-04-12T03:31:10.156Z,13.30
2018-04-12T03:33:37.817Z,13.60
2018-04-12T03:36:04.808Z,13.60
2018-04-12T03:38:31.035Z,13.60
2018-04-12T03:40:57.330Z,13.60
2018-04-12T03:43:24.319Z,13.60
2018-04-12T03:45:50.664Z,13.60
2018-04-12T03:48:17.163Z,13.70
2018-04-12T03:50:44.232Z,13.80
2018-04-12T03:53:12.401Z,13.80
2018-04-12T03:55:39.396Z,14.00
2018-04-12T03:58:05.648Z,13.90
2018-04-12T04:00:31.963Z,14.00
2018-04-12T04:02:58.646Z,14.00
2018-04-12T04:05:24.889Z,14.00
2018-04-12T04:07:52.213Z,14.00
2018-04-12T04:10:19.000Z,13.90
2018-04-12T04:12:46.430Z,14.10
2018-04-12T04:15:25.688Z,14.10
2018-04-12T04:18:05.505Z,14.10
2018-04-12T04:20:44.197Z,14.10
2018-04-12T04:23:10.478Z,14.20
2018-04-12T04:25:36.748Z,14.30
2018-04-12T04:28:03.081Z,14.40
2018-04-12T04:30:29.792Z,14.30
2018-04-12T04:32:56.564Z,14.30
2018-04-12T04:35:23.548Z,14.10
2018-04-12T04:37:49.808Z,14.20
2018-04-12T04:40:16.080Z,14.20
2018-04-12T04:42:43.100Z,14.20
2018-04-12T04:45:09.498Z,14.20
2018-04-12T04:47:36.087Z,14.20
2018-04-12T04:50:03.812Z,14.20
2018-04-12T04:52:30.068Z,14.20
2018-04-12T04:54:57.050Z,14.30
2018-04-12T04:57:24.627Z,14.20
2018-04-12T04:59:51.978Z,14.20
2018-04-12T05:02:19.657Z,14.20
2018-04-12T05:04:47.100Z,14.20
2018-04-12T05:07:13.671Z,14.20
2018-04-12T05:09:41.028Z,14.20
2018-04-12T05:12:08.009Z,14.30
2018-04-12T05:14:34.283Z,14.30
2018-04-12T05:17:01.041Z,14.40
2018-04-12T05:19:28.033Z,14.50
2018-04-12T05:21:54.337Z,14.50
2018-04-12T05:24:21.605Z,14.60
2018-04-12T05:26:47.874Z,14.60
2018-04-12T05:29:14.841Z,14.50
2018-04-12T05:31:41.767Z,14.60
2018-04-12T05:34:08.076Z,14.70
2018-04-12T05:36:35.093Z,14.70
2018-04-12T05:39:01.772Z,14.70
2018-04-12T05:41:28.457Z,14.80
2018-04-12T05:43:55.265Z,14.90
2018-04-12T05:46:21.542Z,15.00
2018-04-12T05:48:47.854Z,15.10
2018-04-12T05:51:14.323Z,15.20
2018-04-12T05:53:41.091Z,15.30
2018-04-12T05:56:07.474Z,15.40
2018-04-12T05:58:34.599Z,15.50
2018-04-12T06:01:01.649Z,15.60
2018-04-12T06:03:29.108Z,15.70
2018-04-12T06:05:57.390Z,15.70
2018-04-12T06:08:24.388Z,15.70
2018-04-12T06:10:51.198Z,15.70
2018-04-12T06:13:18.626Z,15.80
2018-04-12T06:15:45.055Z,15.80
2018-04-12T06:18:11.820Z,15.90
2018-04-12T06:20:38.109Z,15.90
2018-04-12T06:23:04.452Z,16.00
2018-04-12T06:25:30.739Z,16.10
2018-04-12T06:27:58.343Z,16.10
2018-04-12T06:30:25.265Z,16.10
2018-04-12T06:32:52.701Z,16.10
2018-04-12T06:35:18.956Z,16.10
2018-04-12T06:37:45.944Z,16.00
2018-04-12T06:40:12.222Z,16.00
2018-04-12T06:42:38.500Z,16.10
2018-04-12T06:45:05.102Z,16.20
2018-04-12T06:47:31.368Z,16.40
2018-04-12T06:49:57.669Z,16.40
2018-04-12T06:52:23.952Z,16.60
2018-04-12T06:54:50.704Z,16.50
2018-04-12T06:57:16.953Z,16.60
2018-04-12T06:59:43.773Z,16.60
2018-04-12T07:02:10.617Z,16.60
2018-04-12T07:04:36.885Z,16.60
2018-04-12T07:07:04.366Z,16.70
2018-04-12T07:09:31.254Z,16.80
2018-04-12T07:11:58.724Z,16.80
2018-04-12T07:14:24.983Z,16.80
2018-04-12T07:16:51.997Z,16.80
2018-04-12T07:19:19.023Z,16.80
2018-04-12T07:21:45.313Z,16.80
2018-04-12T07:24:12.643Z,16.90
2018-04-12T07:26:39.645Z,17.10
2018-04-12T07:29:07.161Z,17.10
2018-04-12T07:31:34.617Z,17.50
2018-04-12T07:34:01.638Z,17.50
2018-04-12T07:36:27.902Z,17.50
2018-04-12T07:38:54.910Z,17.80
2018-04-12T07:41:22.121Z,17.80
2018-04-12T07:43:49.167Z,18.30
2018-04-12T07:46:16.895Z,18.40
2018-04-12T07:48:43.173Z,18.40
2018-04-12T07:51:10.223Z,18.70
2018-04-12T07:53:37.833Z,18.60
2018-04-12T07:56:04.103Z,18.60
2018-04-12T07:58:30.837Z,18.70
2018-04-12T08:00:57.726Z,18.80
2018-04-12T08:03:25.134Z,19.10
2018-04-12T08:05:52.146Z,19.10
2018-04-12T08:08:19.169Z,19.30
2018-04-12T08:10:47.372Z,19.40
2018-04-12T08:13:15.745Z,19.50
2018-04-12T08:15:42.783Z,19.50
2018-04-12T08:18:11.088Z,19.60
2018-04-12T08:20:38.320Z,19.70
2018-04-12T08:23:05.292Z,19.60
2018-04-12T08:25:32.288Z,19.80
2018-04-12T08:27:58.545Z,19.80
2018-04-12T08:30:25.738Z,19.80
2018-04-12T08:32:53.090Z,20.00
2018-04-12T08:35:19.568Z,20.00
2018-04-12T08:37:46.513Z,20.10
2018-04-12T08:40:13.561Z,20.20
2018-04-12T08:42:40.157Z,20.20
2018-04-12T08:45:06.737Z,20.30
2018-04-12T08:47:33.178Z,20.30
2018-04-12T08:49:59.449Z,20.40
2018-04-12T08:52:26.060Z,20.40
2018-04-12T08:54:53.093Z,20.50
2018-04-12T08:57:19.413Z,20.50
2018-04-12T08:59:46.950Z,20.60
2018-04-12T09:02:13.737Z,20.60
2018-04-12T09:04:40.776Z,20.60
2018-04-12T09:07:09.190Z,20.80
2018-04-12T09:09:35.817Z,20.80
2018-04-12T09:12:04.003Z,21.00
2018-04-12T09:14:30.355Z,21.00
2018-04-12T09:16:57.481Z,21.00
2018-04-12T09:19:25.176Z,20.80
2018-04-12T09:21:51.457Z,20.80
2018-04-12T09:24:17.714Z,20.80
2018-04-12T09:26:44.971Z,20.70
2018-04-12T09:29:11.966Z,20.70
2018-04-12T09:31:38.331Z,20.70
2018-04-12T09:34:05.324Z,20.70
2018-04-12T09:36:32.320Z,21.00
2018-04-12T09:38:58.588Z,21.00
2018-04-12T09:41:24.978Z,21.30
2018-04-12T09:43:52.340Z,21.40
2018-04-12T09:46:18.692Z,21.50
2018-04-12T09:48:45.284Z,21.70
2018-04-12T09:51:12.292Z,21.80
2018-04-12T09:53:39.081Z,21.80
2018-04-12T09:56:06.085Z,21.80
2018-04-12T09:58:33.628Z,21.90
2018-04-12T10:00:59.993Z,22.20
2018-04-12T10:03:29.439Z,22.30
2018-04-12T10:06:03.367Z,22.40
2018-04-12T10:08:29.620Z,22.30
2018-04-12T10:10:56.297Z,22.50
2018-04-12T10:13:23.996Z,22.60
2018-04-12T10:15:50.906Z,22.70
2018-04-12T10:18:17.691Z,22.80
2018-04-12T10:20:44.680Z,22.80
2018-04-12T10:23:10.936Z,22.80
2018-04-12T10:25:38.687Z,22.60
2018-04-12T10:28:04.955Z,22.50
2018-04-12T10:30:31.312Z,22.60
2018-04-12T10:32:58.429Z,22.70
2018-04-12T10:35:24.688Z,22.70
2018-04-12T10:37:50.940Z,22.80
2018-04-12T10:40:18.107Z,22.70
2018-04-12T10:42:45.549Z,22.60
2018-04-12T10:45:12.826Z,22.60
2018-04-12T10:47:40.069Z,22.50
2018-04-12T10:50:07.680Z,22.60
2018-04-12T10:52:33.940Z,22.60
2018-04-12T10:55:00.616Z,22.70
2018-04-12T10:57:28.386Z,22.60
2018-04-12T10:59:55.757Z,22.70
2018-04-12T11:02:22.382Z,22.60
2018-04-12T11:04:49.601Z,22.60
2018-04-12T11:07:17.851Z,22.60
2018-04-12T11:09:44.130Z,22.70
2018-04-12T11:12:11.116Z,22.60
2018-04-12T11:14:38.539Z,22.70
2018-04-12T11:17:05.953Z,22.70
2018-04-12T11:19:32.197Z,23.00
2018-04-12T11:21:58.485Z,23.20
2018-04-12T11:24:24.802Z,23.40
2018-04-12T11:26:51.071Z,23.10
2018-04-12T11:29:18.273Z,22.50
2018-04-12T11:31:44.862Z,22.50
2018-04-12T11:34:11.188Z,22.40
2018-04-12T11:36:37.391Z,22.60
2018-04-12T11:39:05.723Z,22.80
2018-04-12T11:41:33.015Z,22.80
2018-04-12T11:43:59.278Z,22.80
2018-04-12T11:46:26.380Z,22.60
2018-04-12T11:48:53.109Z,22.50
2018-04-12T11:51:20.101Z,22.50
2018-04-12T11:53:47.024Z,22.50
2018-04-12T11:56:14.476Z,22.70
2018-04-12T11:58:41.973Z,22.80
2018-04-12T12:01:08.686Z,22.70
2018-04-12T12:03:36.326Z,23.10
2018-04-12T12:06:04.141Z,23.10
2018-04-12T12:08:30.400Z,23.40
2018-04-12T12:10:57.117Z,23.40
2018-04-12T12:13:23.823Z,23.30
2018-04-12T12:15:51.417Z,23.00
2018-04-12T12:18:18.796Z,22.70
2018-04-12T12:20:45.049Z,22.60
2018-04-12T12:23:11.762Z,22.60
2018-04-12T12:25:38.499Z,22.60
2018-04-12T12:28:06.284Z,22.70
2018-04-12T12:30:34.350Z,22.60
2018-04-12T12:33:01.349Z,22.80
2018-04-12T12:35:28.367Z,22.90
2018-04-12T12:37:54.708Z,22.90
2018-04-12T12:40:21.076Z,22.80
2018-04-12T12:42:47.573Z,22.90
2018-04-12T12:45:14.504Z,22.80
2018-04-12T12:47:40.801Z,22.80
2018-04-12T12:50:07.046Z,22.70
2018-04-12T12:52:33.830Z,22.70
2018-04-12T12:55:01.403Z,22.60
2018-04-12T12:57:28.150Z,22.60
2018-04-12T12:59:55.162Z,22.50
2018-04-12T13:02:22.575Z,22.80
2018-04-12T13:04:48.828Z,22.80
2018-04-12T13:07:15.523Z,22.90
2018-04-12T13:09:43.047Z,23.10
2018-04-12T13:12:10.224Z,23.10
2018-04-12T13:14:37.964Z,23.10
2018-04-12T13:17:04.625Z,23.10
2018-04-12T13:19:30.897Z,23.10
2018-04-12T13:21:57.952Z,23.10
2018-04-12T13:24:25.459Z,23.10
2018-04-12T13:26:52.477Z,23.10
2018-04-12T13:29:18.751Z,23.00
2018-04-12T13:31:45.036Z,23.00
2018-04-12T13:34:12.044Z,22.90
2018-04-12T13:36:38.315Z,22.80
2018-04-12T13:39:05.842Z,22.70
2018-04-12T13:41:32.099Z,22.70
2018-04-12T13:43:58.807Z,22.70
2018-04-12T13:46:25.078Z,22.60
2018-04-12T13:48:51.358Z,22.60
2018-04-12T13:51:17.729Z,22.50
2018-04-12T13:53:44.459Z,22.50
2018-04-12T13:56:11.471Z,22.40
2018-04-12T13:58:38.649Z,22.40
2018-04-12T14:01:06.510Z,22.40
2018-04-12T14:03:33.230Z,22.40
2018-04-12T14:06:00.905Z,22.40
2018-04-12T14:08:28.384Z,22.60
2018-04-12T14:10:55.584Z,22.60
2018-04-12T14:13:22.369Z,22.70
2018-04-12T14:15:49.401Z,22.80
2018-04-12T14:18:17.881Z,22.70
2018-04-12T14:20:44.146Z,22.60
2018-04-12T14:23:11.640Z,23.00
2018-04-12T14:25:38.464Z,23.00
2018-04-12T14:28:05.809Z,23.30
2018-04-12T14:30:33.711Z,23.40
2018-04-12T14:33:00.328Z,23.40
2018-04-12T14:35:27.797Z,23.30
2018-04-12T14:37:54.093Z,23.30
2018-04-12T14:40:20.879Z,23.40
2018-04-12T14:42:48.064Z,23.20
2018-04-12T14:45:14.312Z,23.20
2018-04-12T14:47:40.576Z,22.80
2018-04-12T14:50:06.960Z,22.60
2018-04-12T14:52:33.316Z,22.50
2018-04-12T14:54:59.984Z,22.40
2018-04-12T14:57:26.992Z,22.30
2018-04-12T14:59:53.660Z,22.30
2018-04-12T15:02:20.878Z,22.10
2018-04-12T15:04:48.534Z,21.90
2018-04-12T15:07:16.057Z,21.90
2018-04-12T15:09:42.314Z,21.90
2018-04-12T15:12:09.312Z,21.90
2018-04-12T15:14:35.557Z,21.80
2018-04-12T15:17:02.359Z,21.60
2018-04-12T15:19:29.841Z,21.50
2018-04-12T15:21:57.950Z,21.50
2018-04-12T15:24:24.824Z,21.50
2018-04-12T15:26:51.618Z,21.40
2018-04-12T15:29:17.910Z,21.40
2018-04-12T15:31:44.990Z,21.20
2018-04-12T15:34:12.028Z,21.30
2018-04-12T15:36:38.304Z,21.30
2018-04-12T15:39:05.945Z,22.60
2018-04-12T15:41:32.969Z,24.50
2018-04-12T15:43:59.243Z,24.50
2018-04-12T15:46:25.507Z,24.80
2018-04-12T15:48:51.776Z,25.40
2018-04-12T15:51:18.102Z,25.40
2018-04-12T15:53:45.719Z,24.90
2018-04-12T15:56:11.967Z,24.50
2018-04-12T15:58:38.969Z,24.50
2018-04-12T16:01:05.254Z,24.00
2018-04-12T16:03:31.833Z,24.10
2018-04-12T16:05:58.823Z,24.10
2018-04-12T16:08:25.817Z,23.80
2018-04-12T16:10:52.523Z,23.80
2018-04-12T16:13:19.153Z,23.40
2018-04-12T16:15:46.403Z,22.60
2018-04-12T16:18:13.992Z,22.20
2018-04-12T16:20:40.249Z,22.10
2018-04-12T16:23:06.506Z,21.80
2018-04-12T16:25:33.224Z,21.40
2018-04-12T16:27:59.487Z,21.00
2018-04-12T16:30:26.188Z,20.90
2018-04-12T16:32:52.445Z,20.60
2018-04-12T16:35:19.121Z,20.40
2018-04-12T16:37:45.966Z,20.30
2018-04-12T16:40:12.253Z,20.10
2018-04-12T16:42:38.510Z,20.00
2018-04-12T16:45:04.826Z,19.80
2018-04-12T16:47:31.682Z,19.60
2018-04-12T16:49:58.777Z,19.50
2018-04-12T16:52:25.077Z,19.40
2018-04-12T16:54:51.997Z,19.30
2018-04-12T16:57:19.016Z,19.00
2018-04-12T16:59:46.178Z,19.00
2018-04-12T17:02:12.981Z,18.90
2018-04-12T17:04:39.801Z,18.80
2018-04-12T17:07:07.296Z,18.50
2018-04-12T17:09:33.560Z,18.50
2018-04-12T17:12:00.392Z,18.50
2018-04-12T17:14:27.625Z,18.40
2018-04-12T17:16:54.965Z,18.30
2018-04-12T17:19:21.257Z,18.20
2018-04-12T17:21:49.195Z,18.10
2018-04-12T17:24:15.453Z,18.00
2018-04-12T17:26:41.713Z,17.90
2018-04-12T17:29:08.061Z,17.80
2018-04-12T17:31:35.328Z,17.70
2018-04-12T17:34:03.198Z,17.60
2018-04-12T17:36:30.243Z,17.60
2018-04-12T17:38:56.491Z,17.60
2018-04-12T17:41:23.743Z,17.40
2018-04-12T17:43:50.827Z,17.30
2018-04-12T17:46:17.866Z,17.30
2018-04-12T17:48:44.155Z,17.30
2018-04-12T17:51:10.422Z,17.20
2018-04-12T17:53:37.985Z,17.10
2018-04-12T17:56:04.985Z,17.00
2018-04-12T17:58:31.914Z,17.00
2018-04-12T18:00:59.242Z,17.00
2018-04-12T18:03:26.704Z,16.90
2018-04-12T18:05:54.481Z,16.80
2018-04-12T18:08:20.772Z,16.80
2018-04-12T18:10:47.930Z,16.80
2018-04-12T18:13:14.921Z,16.70
2018-04-12T18:15:41.927Z,16.60
2018-04-12T18:18:09.325Z,16.60
2018-04-12T18:20:36.318Z,16.60
2018-04-12T18:23:02.596Z,16.50
2018-04-12T18:25:29.174Z,16.50
2018-04-12T18:27:55.516Z,16.50
2018-04-12T18:30:21.869Z,16.50
2018-04-12T18:32:48.587Z,16.40
2018-04-12T18:35:15.595Z,16.40
2018-04-12T18:37:42.462Z,16.40
2018-04-12T18:40:09.478Z,16.30
2018-04-12T18:42:36.305Z,16.30
2018-04-12T18:45:02.601Z,16.30
2018-04-12T18:47:29.617Z,16.10
2018-04-12T18:49:56.417Z,16.10
2018-04-12T18:52:23.433Z,16.00
2018-04-12T18:54:50.945Z,16.00
2018-04-12T18:57:17.214Z,16.00
2018-04-12T18:59:44.025Z,15.90
2018-04-12T19:02:11.146Z,15.90
2018-04-12T19:04:37.473Z,15.80
2018-04-12T19:07:04.294Z,15.80
2018-04-12T19:09:30.553Z,15.70
2018-04-12T19:11:57.439Z,15.70
2018-04-12T19:14:25.099Z,15.60
2018-04-12T19:16:52.865Z,15.60
2018-04-12T19:19:19.870Z,15.60
2018-04-12T19:21:46.137Z,15.50
2018-04-12T19:24:12.397Z,15.50
2018-04-12T19:26:39.449Z,15.50
2018-04-12T19:29:07.113Z,15.40
2018-04-12T19:31:35.120Z,15.40
2018-04-12T19:34:01.387Z,15.40
2018-04-12T19:36:27.662Z,15.30
2018-04-12T19:38:54.473Z,15.30
2018-04-12T19:41:21.195Z,15.20
2018-04-12T19:43:47.890Z,15.20
2018-04-12T19:46:15.873Z,15.30
2018-04-12T19:48:42.145Z,15.20
2018-04-12T19:51:08.563Z,15.30
2018-04-12T19:53:36.527Z,15.20
2018-04-12T19:56:03.141Z,15.20
2018-04-12T19:58:30.145Z,15.30
2018-04-12T20:00:57.522Z,15.20
2018-04-12T20:03:24.326Z,15.40
2018-04-12T20:05:51.053Z,15.30
2018-04-12T20:08:18.626Z,15.40
2018-04-12T20:10:46.190Z,15.40
2018-04-12T20:13:13.452Z,15.40
2018-04-12T20:15:40.346Z,15.40
2018-04-12T20:18:07.147Z,15.40
2018-04-12T20:20:34.154Z,15.40
2018-04-12T20:23:00.430Z,15.40
2018-04-12T20:25:28.104Z,15.30
2018-04-12T20:27:54.869Z,15.40
2018-04-12T20:30:21.117Z,15.40
2018-04-12T20:32:47.385Z,15.40
2018-04-12T20:35:14.132Z,15.30
2018-04-12T20:37:40.505Z,15.30
2018-04-12T20:40:06.985Z,15.30
2018-04-12T20:42:33.669Z,15.40
2018-04-12T20:45:00.744Z,15.40
2018-04-12T20:47:27.004Z,15.40
2018-04-12T20:49:53.904Z,15.40
2018-04-12T20:52:21.479Z,15.50
2018-04-12T20:54:49.046Z,15.40
2018-04-12T20:57:16.120Z,15.40
2018-04-12T20:59:43.245Z,15.40
2018-04-12T21:02:10.720Z,15.40
2018-04-12T21:04:37.560Z,15.40
2018-04-12T21:07:05.545Z,15.30
2018-04-12T21:09:32.543Z,15.30
2018-04-12T21:11:59.216Z,15.30
2018-04-12T21:14:25.903Z,15.30
2018-04-12T21:16:53.439Z,15.40
2018-04-12T21:19:20.770Z,15.40
2018-04-12T21:21:47.140Z,15.40
2018-04-12T21:24:14.463Z,15.40
2018-04-12T21:26:40.712Z,15.40
2018-04-12T21:29:06.965Z,15.40
2018-04-12T21:31:33.982Z,15.40
2018-04-12T21:34:00.238Z,15.40
2018-04-12T21:36:27.821Z,15.40
2018-04-12T21:38:54.800Z,15.40
2018-04-12T21:41:21.070Z,15.40
2018-04-12T21:43:48.920Z,15.40
2018-04-12T21:46:15.193Z,15.50
2018-04-12T21:48:42.257Z,15.40
2018-04-12T21:51:09.289Z,15.40
2018-04-12T21:53:36.473Z,15.30
2018-04-12T21:56:02.750Z,15.30
2018-04-12T21:58:29.010Z,15.30
2018-04-12T22:00:55.588Z,15.30
2018-04-12T22:03:22.385Z,15.30
2018-04-12T22:05:49.394Z,15.10
2018-04-12T22:08:16.374Z,15.20
2018-04-12T22:10:43.273Z,15.20
2018-04-12T22:13:10.944Z,15.10
2018-04-12T22:15:38.453Z,15.10
2018-04-12T22:18:05.557Z,15.10
2018-04-12T22:20:32.610Z,15.00
2018-04-12T22:23:00.380Z,15.00
2018-04-12T22:25:28.358Z,15.00
2018-04-12T22:27:55.486Z,15.00
2018-04-12T22:30:22.216Z,14.90
2018-04-12T22:32:48.536Z,14.90
2018-04-12T22:35:15.430Z,14.90
2018-04-12T22:37:42.480Z,14.80
2018-04-12T22:40:08.793Z,14.80
2018-04-12T22:42:35.992Z,14.80
2018-04-12T22:45:03.054Z,14.80
2018-04-12T22:47:29.789Z,14.80
2018-04-12T22:49:56.922Z,14.90
2018-04-12T22:52:23.229Z,14.90
2018-04-12T22:54:50.438Z,14.90
2018-04-12T22:57:17.486Z,14.90
2018-04-12T22:59:45.362Z,14.90
2018-04-12T23:02:13.049Z,14.90
2018-04-12T23:04:40.897Z,14.90
2018-04-12T23:07:08.317Z,14.80
2018-04-12T23:09:34.644Z,14.80
2018-04-12T23:12:02.237Z,14.70
2018-04-12T23:14:29.213Z,14.60
2018-04-12T23:16:56.718Z,14.60
2018-04-12T23:19:23.798Z,14.60
2018-04-12T23:21:50.112Z,14.60
2018-04-12T23:24:16.423Z,14.60
2018-04-12T23:26:43.029Z,14.60
2018-04-12T23:29:10.082Z,14.50
2018-04-12T23:31:37.232Z,14.50
2018-04-12T23:34:04.375Z,14.50
2018-04-12T23:36:30.709Z,14.50
2018-04-12T23:38:57.024Z,14.50
2018-04-12T23:41:23.522Z,14.60
2018-04-12T23:43:50.514Z,14.60
2018-04-12T23:46:16.833Z,14.60
2018-04-12T23:48:43.137Z,14.70
2018-04-12T23:51:10.813Z,14.70
2018-04-12T23:53:37.857Z,14.70
2018-04-12T23:56:04.913Z,14.60
2018-04-12T23:58:31.973Z,14.70
